sensor_id;sensor_type;location;lat;lon;timestamp;P1;durP1;ratioP1;P2;durP2;ratioP2
10586;SDS011;5341;47.606;7.576;2023-07-31T00:01:34;3.42;;;1.88;;
10586;SDS011;5341;47.606;7.576;2023-07-31T00:04:03;2.47;;;1.88;;
10586;SDS011;5341;47.606;7.576;2023-07-31T00:06:30;4.18;;;1.92;;
10586;SDS011;5341;47.606;7.576;2023-07-31T00:08:58;2.25;;;1.73;;
10586;SDS011;5341;47.606;7.576;2023-07-31T00:11:25;4.95;;;1.80;;
10586;SDS011;5341;47.606;7.576;2023-07-31T00:13:52;4.07;;;1.75;;
10586;SDS011;5341;47.606;7.576;2023-07-31T00:16:20;4.53;;;1.63;;
10586;SDS011;5341;47.606;7.576;2023-07-31T00:18:47;2.17;;;1.80;;
10586;SDS011;5341;47.606;7.576;2023-07-31T00:21:16;3.78;;;1.98;;
10586;SDS011;5341;47.606;7.576;2023-07-31T00:23:44;4.07;;;1.80;;
10586;SDS011;5341;47.606;7.576;2023-07-31T00:26:11;3.25;;;1.88;;
10586;SDS011;5341;47.606;7.576;2023-07-31T00:28:38;2.70;;;1.55;;
10586;SDS011;5341;47.606;7.576;2023-07-31T00:31:06;4.55;;;1.90;;
10586;SDS011;5341;47.606;7.576;2023-07-31T00:33:34;3.50;;;1.90;;
10586;SDS011;5341;47.606;7.576;2023-07-31T00:36:02;2.60;;;1.70;;
10586;SDS011;5341;47.606;7.576;2023-07-31T00:38:31;2.40;;;1.70;;
10586;SDS011;5341;47.606;7.576;2023-07-31T00:40:59;2.55;;;1.70;;
10586;SDS011;5341;47.606;7.576;2023-07-31T00:43:26;2.70;;;1.80;;
10586;SDS011;5341;47.606;7.576;2023-07-31T00:45:54;2.38;;;1.63;;
10586;SDS011;5341;47.606;7.576;2023-07-31T00:48:22;4.40;;;1.70;;
10586;SDS011;5341;47.606;7.576;2023-07-31T00:50:50;3.10;;;1.55;;
10586;SDS011;5341;47.606;7.576;2023-07-31T00:53:18;2.92;;;1.70;;
10586;SDS011;5341;47.606;7.576;2023-07-31T00:55:47;2.30;;;1.67;;
10586;SDS011;5341;47.606;7.576;2023-07-31T00:58:14;3.00;;;1.70;;
10586;SDS011;5341;47.606;7.576;2023-07-31T01:00:42;2.22;;;1.70;;
10586;SDS011;5341;47.606;7.576;2023-07-31T01:03:09;1.98;;;1.60;;
10586;SDS011;5341;47.606;7.576;2023-07-31T01:05:39;4.05;;;1.90;;
10586;SDS011;5341;47.606;7.576;2023-07-31T01:08:15;2.38;;;1.55;;
10586;SDS011;5341;47.606;7.576;2023-07-31T01:10:55;3.60;;;1.90;;
10586;SDS011;5341;47.606;7.576;2023-07-31T01:13:26;2.92;;;1.70;;
10586;SDS011;5341;47.606;7.576;2023-07-31T01:15:54;2.67;;;1.75;;
10586;SDS011;5341;47.606;7.576;2023-07-31T01:18:22;2.55;;;1.67;;
10586;SDS011;5341;47.606;7.576;2023-07-31T01:20:52;4.97;;;1.48;;
10586;SDS011;5341;47.606;7.576;2023-07-31T01:23:31;2.67;;;1.90;;
10586;SDS011;5341;47.606;7.576;2023-07-31T01:26:21;3.92;;;1.73;;
10586;SDS011;5341;47.606;7.576;2023-07-31T01:28:55;6.38;;;1.83;;
10586;SDS011;5341;47.606;7.576;2023-07-31T01:31:28;3.38;;;1.75;;
10586;SDS011;5341;47.606;7.576;2023-07-31T01:33:58;2.47;;;1.65;;
10586;SDS011;5341;47.606;7.576;2023-07-31T01:36:27;4.30;;;1.80;;
10586;SDS011;5341;47.606;7.576;2023-07-31T01:38:57;3.95;;;1.88;;
10586;SDS011;5341;47.606;7.576;2023-07-31T01:41:27;2.78;;;1.60;;
10586;SDS011;5341;47.606;7.576;2023-07-31T01:43:55;3.58;;;1.70;;
10586;SDS011;5341;47.606;7.576;2023-07-31T01:46:23;2.58;;;1.70;;
10586;SDS011;5341;47.606;7.576;2023-07-31T01:48:50;3.80;;;2.00;;
10586;SDS011;5341;47.606;7.576;2023-07-31T01:51:18;2.50;;;1.75;;
10586;SDS011;5341;47.606;7.576;2023-07-31T01:53:45;2.10;;;1.70;;
10586;SDS011;5341;47.606;7.576;2023-07-31T01:56:13;2.28;;;1.50;;
10586;SDS011;5341;47.606;7.576;2023-07-31T01:58:42;2.53;;;1.80;;
10586;SDS011;5341;47.606;7.576;2023-07-31T02:01:09;2.40;;;1.70;;
10586;SDS011;5341;47.606;7.576;2023-07-31T02:03:37;3.22;;;1.67;;
10586;SDS011;5341;47.606;7.576;2023-07-31T02:06:04;2.50;;;1.90;;
10586;SDS011;5341;47.606;7.576;2023-07-31T02:08:32;2.42;;;1.58;;
10586;SDS011;5341;47.606;7.576;2023-07-31T02:10:59;2.40;;;1.90;;
10586;SDS011;5341;47.606;7.576;2023-07-31T02:13:27;2.75;;;1.90;;
10586;SDS011;5341;47.606;7.576;2023-07-31T02:15:56;2.08;;;1.67;;
10586;SDS011;5341;47.606;7.576;2023-07-31T02:18:24;2.63;;;1.70;;
10586;SDS011;5341;47.606;7.576;2023-07-31T02:20:52;2.53;;;1.85;;
10586;SDS011;5341;47.606;7.576;2023-07-31T02:23:20;3.45;;;2.00;;
10586;SDS011;5341;47.606;7.576;2023-07-31T02:25:47;2.75;;;1.73;;
10586;SDS011;5341;47.606;7.576;2023-07-31T02:28:14;3.30;;;1.80;;
10586;SDS011;5341;47.606;7.576;2023-07-31T02:30:43;4.43;;;1.98;;
10586;SDS011;5341;47.606;7.576;2023-07-31T02:33:13;2.55;;;1.83;;
10586;SDS011;5341;47.606;7.576;2023-07-31T02:35:42;2.88;;;1.70;;
10586;SDS011;5341;47.606;7.576;2023-07-31T02:38:10;3.92;;;1.77;;
10586;SDS011;5341;47.606;7.576;2023-07-31T02:40:37;2.25;;;1.88;;
10586;SDS011;5341;47.606;7.576;2023-07-31T02:43:06;3.92;;;1.70;;
10586;SDS011;5341;47.606;7.576;2023-07-31T02:45:34;3.17;;;1.75;;
10586;SDS011;5341;47.606;7.576;2023-07-31T02:48:01;3.45;;;1.80;;
10586;SDS011;5341;47.606;7.576;2023-07-31T02:50:30;2.10;;;1.75;;
10586;SDS011;5341;47.606;7.576;2023-07-31T02:52:58;2.72;;;1.63;;
10586;SDS011;5341;47.606;7.576;2023-07-31T02:55:26;2.60;;;1.80;;
10586;SDS011;5341;47.606;7.576;2023-07-31T02:57:53;4.50;;;2.00;;
10586;SDS011;5341;47.606;7.576;2023-07-31T03:00:21;2.25;;;1.60;;
10586;SDS011;5341;47.606;7.576;2023-07-31T03:02:48;2.97;;;1.67;;
10586;SDS011;5341;47.606;7.576;2023-07-31T03:05:15;2.72;;;1.98;;
10586;SDS011;5341;47.606;7.576;2023-07-31T03:07:44;4.03;;;1.70;;
10586;SDS011;5341;47.606;7.576;2023-07-31T03:10:12;2.97;;;1.70;;
10586;SDS011;5341;47.606;7.576;2023-07-31T03:12:39;6.10;;;2.03;;
10586;SDS011;5341;47.606;7.576;2023-07-31T03:15:08;3.15;;;2.13;;
10586;SDS011;5341;47.606;7.576;2023-07-31T03:17:35;3.55;;;1.70;;
10586;SDS011;5341;47.606;7.576;2023-07-31T03:20:03;2.92;;;1.80;;
10586;SDS011;5341;47.606;7.576;2023-07-31T03:22:31;2.45;;;1.80;;
10586;SDS011;5341;47.606;7.576;2023-07-31T03:25:01;2.88;;;1.65;;
10586;SDS011;5341;47.606;7.576;2023-07-31T03:27:29;2.53;;;1.80;;
10586;SDS011;5341;47.606;7.576;2023-07-31T03:29:57;1.85;;;1.50;;
10586;SDS011;5341;47.606;7.576;2023-07-31T03:32:24;2.38;;;2.00;;
10586;SDS011;5341;47.606;7.576;2023-07-31T03:34:52;3.05;;;1.80;;
10586;SDS011;5341;47.606;7.576;2023-07-31T03:37:19;3.15;;;1.50;;
10586;SDS011;5341;47.606;7.576;2023-07-31T03:39:47;6.75;;;1.83;;
10586;SDS011;5341;47.606;7.576;2023-07-31T03:42:17;2.58;;;1.65;;
10586;SDS011;5341;47.606;7.576;2023-07-31T03:44:44;1.92;;;1.55;;
10586;SDS011;5341;47.606;7.576;2023-07-31T03:47:12;2.78;;;1.95;;
10586;SDS011;5341;47.606;7.576;2023-07-31T03:49:39;3.95;;;2.05;;
10586;SDS011;5341;47.606;7.576;2023-07-31T03:52:06;2.35;;;1.90;;
10586;SDS011;5341;47.606;7.576;2023-07-31T03:54:34;2.60;;;1.70;;
10586;SDS011;5341;47.606;7.576;2023-07-31T03:57:02;4.30;;;1.80;;
10586;SDS011;5341;47.606;7.576;2023-07-31T03:59:31;2.30;;;1.73;;
10586;SDS011;5341;47.606;7.576;2023-07-31T04:01:58;3.08;;;2.00;;
10586;SDS011;5341;47.606;7.576;2023-07-31T04:04:26;2.30;;;1.80;;
10586;SDS011;5341;47.606;7.576;2023-07-31T04:06:53;3.83;;;1.80;;
10586;SDS011;5341;47.606;7.576;2023-07-31T04:09:20;4.07;;;2.10;;
10586;SDS011;5341;47.606;7.576;2023-07-31T04:11:48;2.38;;;1.95;;
10586;SDS011;5341;47.606;7.576;2023-07-31T04:14:15;3.58;;;1.80;;
10586;SDS011;5341;47.606;7.576;2023-07-31T04:16:44;3.13;;;2.00;;
10586;SDS011;5341;47.606;7.576;2023-07-31T04:19:12;3.55;;;1.95;;
10586;SDS011;5341;47.606;7.576;2023-07-31T04:21:42;2.78;;;1.90;;
10586;SDS011;5341;47.606;7.576;2023-07-31T04:24:09;2.53;;;1.90;;
10586;SDS011;5341;47.606;7.576;2023-07-31T04:26:37;3.22;;;2.00;;
10586;SDS011;5341;47.606;7.576;2023-07-31T04:29:04;4.88;;;1.88;;
10586;SDS011;5341;47.606;7.576;2023-07-31T04:31:31;3.40;;;2.20;;
10586;SDS011;5341;47.606;7.576;2023-07-31T04:34:00;2.75;;;1.90;;
10586;SDS011;5341;47.606;7.576;2023-07-31T04:36:28;3.53;;;2.00;;
10586;SDS011;5341;47.606;7.576;2023-07-31T04:38:55;2.50;;;1.80;;
10586;SDS011;5341;47.606;7.576;2023-07-31T04:41:22;3.03;;;1.90;;
10586;SDS011;5341;47.606;7.576;2023-07-31T04:43:50;3.30;;;1.80;;
10586;SDS011;5341;47.606;7.576;2023-07-31T04:46:17;3.97;;;1.75;;
10586;SDS011;5341;47.606;7.576;2023-07-31T04:48:45;5.97;;;2.30;;
10586;SDS011;5341;47.606;7.576;2023-07-31T04:51:13;2.92;;;1.95;;
10586;SDS011;5341;47.606;7.576;2023-07-31T04:53:41;2.72;;;1.80;;
10586;SDS011;5341;47.606;7.576;2023-07-31T04:56:08;4.55;;;2.20;;
10586;SDS011;5341;47.606;7.576;2023-07-31T04:58:36;4.65;;;2.10;;
10586;SDS011;5341;47.606;7.576;2023-07-31T05:01:03;3.72;;;2.22;;
10586;SDS011;5341;47.606;7.576;2023-07-31T05:03:30;3.85;;;2.15;;
10586;SDS011;5341;47.606;7.576;2023-07-31T05:05:58;3.15;;;2.20;;
10586;SDS011;5341;47.606;7.576;2023-07-31T05:08:27;3.00;;;2.15;;
10586;SDS011;5341;47.606;7.576;2023-07-31T05:10:54;5.03;;;2.10;;
10586;SDS011;5341;47.606;7.576;2023-07-31T05:13:22;4.15;;;2.00;;
10586;SDS011;5341;47.606;7.576;2023-07-31T05:15:49;3.50;;;2.30;;
10586;SDS011;5341;47.606;7.576;2023-07-31T05:18:17;3.55;;;2.00;;
10586;SDS011;5341;47.606;7.576;2023-07-31T05:20:45;4.28;;;2.28;;
10586;SDS011;5341;47.606;7.576;2023-07-31T05:23:12;4.32;;;2.30;;
10586;SDS011;5341;47.606;7.576;2023-07-31T05:25:41;3.10;;;2.17;;
10586;SDS011;5341;47.606;7.576;2023-07-31T05:28:08;2.50;;;1.80;;
10586;SDS011;5341;47.606;7.576;2023-07-31T05:30:36;2.80;;;2.10;;
10586;SDS011;5341;47.606;7.576;2023-07-31T05:33:03;1.77;;;1.60;;
10586;SDS011;5341;47.606;7.576;2023-07-31T05:35:31;5.53;;;2.10;;
10586;SDS011;5341;47.606;7.576;2023-07-31T05:37:58;3.15;;;1.92;;
10586;SDS011;5341;47.606;7.576;2023-07-31T05:40:25;2.40;;;1.83;;
10586;SDS011;5341;47.606;7.576;2023-07-31T05:42:54;2.42;;;1.90;;
10586;SDS011;5341;47.606;7.576;2023-07-31T05:45:22;3.22;;;2.22;;
10586;SDS011;5341;47.606;7.576;2023-07-31T05:47:51;3.08;;;1.90;;
10586;SDS011;5341;47.606;7.576;2023-07-31T05:50:19;2.72;;;1.90;;
10586;SDS011;5341;47.606;7.576;2023-07-31T05:52:47;3.47;;;1.92;;
10586;SDS011;5341;47.606;7.576;2023-07-31T05:55:14;3.67;;;2.13;;
10586;SDS011;5341;47.606;7.576;2023-07-31T05:57:42;2.65;;;1.95;;
10586;SDS011;5341;47.606;7.576;2023-07-31T06:00:13;5.05;;;2.00;;
10586;SDS011;5341;47.606;7.576;2023-07-31T06:02:41;2.83;;;1.95;;
10586;SDS011;5341;47.606;7.576;2023-07-31T06:05:08;3.90;;;1.80;;
10586;SDS011;5341;47.606;7.576;2023-07-31T06:07:35;4.57;;;2.20;;
10586;SDS011;5341;47.606;7.576;2023-07-31T06:10:03;4.75;;;1.90;;
10586;SDS011;5341;47.606;7.576;2023-07-31T06:12:32;4.20;;;2.05;;
10586;SDS011;5341;47.606;7.576;2023-07-31T06:14:59;2.80;;;2.00;;
10586;SDS011;5341;47.606;7.576;2023-07-31T06:17:29;3.17;;;1.92;;
10586;SDS011;5341;47.606;7.576;2023-07-31T06:19:56;3.22;;;1.88;;
10586;SDS011;5341;47.606;7.576;2023-07-31T06:22:24;4.40;;;2.08;;
10586;SDS011;5341;47.606;7.576;2023-07-31T06:24:51;4.63;;;2.35;;
10586;SDS011;5341;47.606;7.576;2023-07-31T06:27:19;5.53;;;2.58;;
10586;SDS011;5341;47.606;7.576;2023-07-31T06:29:46;3.22;;;1.92;;
10586;SDS011;5341;47.606;7.576;2023-07-31T06:32:14;3.85;;;2.13;;
10586;SDS011;5341;47.606;7.576;2023-07-31T06:34:43;3.92;;;2.30;;
10586;SDS011;5341;47.606;7.576;2023-07-31T06:37:11;5.60;;;2.10;;
10586;SDS011;5341;47.606;7.576;2023-07-31T06:39:38;4.55;;;2.10;;
10586;SDS011;5341;47.606;7.576;2023-07-31T06:42:06;6.38;;;2.42;;
10586;SDS011;5341;47.606;7.576;2023-07-31T06:44:33;3.38;;;2.03;;
10586;SDS011;5341;47.606;7.576;2023-07-31T06:47:01;4.03;;;2.30;;
10586;SDS011;5341;47.606;7.576;2023-07-31T06:49:29;2.58;;;1.90;;
10586;SDS011;5341;47.606;7.576;2023-07-31T06:51:58;3.95;;;2.13;;
10586;SDS011;5341;47.606;7.576;2023-07-31T06:54:25;5.05;;;2.17;;
10586;SDS011;5341;47.606;7.576;2023-07-31T06:56:54;3.38;;;2.10;;
10586;SDS011;5341;47.606;7.576;2023-07-31T06:59:22;3.85;;;2.00;;
10586;SDS011;5341;47.606;7.576;2023-07-31T07:01:50;2.28;;;1.90;;
10586;SDS011;5341;47.606;7.576;2023-07-31T07:04:18;2.83;;;1.98;;
10586;SDS011;5341;47.606;7.576;2023-07-31T07:06:45;5.00;;;2.40;;
10586;SDS011;5341;47.606;7.576;2023-07-31T07:09:14;3.67;;;2.00;;
10586;SDS011;5341;47.606;7.576;2023-07-31T07:11:41;4.30;;;2.05;;
10586;SDS011;5341;47.606;7.576;2023-07-31T07:14:09;7.22;;;2.00;;
10586;SDS011;5341;47.606;7.576;2023-07-31T07:16:36;2.55;;;1.92;;
10586;SDS011;5341;47.606;7.576;2023-07-31T07:19:06;4.10;;;2.20;;
10586;SDS011;5341;47.606;7.576;2023-07-31T07:21:35;4.25;;;1.90;;
10586;SDS011;5341;47.606;7.576;2023-07-31T07:24:04;3.55;;;2.22;;
10586;SDS011;5341;47.606;7.576;2023-07-31T07:26:34;3.70;;;2.10;;
10586;SDS011;5341;47.606;7.576;2023-07-31T07:29:01;4.60;;;2.30;;
10586;SDS011;5341;47.606;7.576;2023-07-31T07:31:29;3.22;;;2.10;;
10586;SDS011;5341;47.606;7.576;2023-07-31T07:33:57;3.72;;;2.03;;
10586;SDS011;5341;47.606;7.576;2023-07-31T07:36:27;3.90;;;1.95;;
10586;SDS011;5341;47.606;7.576;2023-07-31T07:38:57;4.70;;;1.92;;
10586;SDS011;5341;47.606;7.576;2023-07-31T07:41:25;3.78;;;2.03;;
10586;SDS011;5341;47.606;7.576;2023-07-31T07:43:54;4.72;;;2.00;;
10586;SDS011;5341;47.606;7.576;2023-07-31T07:46:22;4.07;;;2.20;;
10586;SDS011;5341;47.606;7.576;2023-07-31T07:48:50;4.55;;;2.35;;
10586;SDS011;5341;47.606;7.576;2023-07-31T07:51:18;6.78;;;2.50;;
10586;SDS011;5341;47.606;7.576;2023-07-31T07:53:46;3.80;;;2.13;;
10586;SDS011;5341;47.606;7.576;2023-07-31T07:56:14;3.38;;;2.10;;
10586;SDS011;5341;47.606;7.576;2023-07-31T07:58:41;7.38;;;2.28;;
10586;SDS011;5341;47.606;7.576;2023-07-31T08:01:10;4.68;;;2.28;;
10586;SDS011;5341;47.606;7.576;2023-07-31T08:03:38;5.53;;;2.50;;
10586;SDS011;5341;47.606;7.576;2023-07-31T08:06:05;4.28;;;2.47;;
10586;SDS011;5341;47.606;7.576;2023-07-31T08:08:34;4.00;;;2.40;;
10586;SDS011;5341;47.606;7.576;2023-07-31T08:11:02;5.80;;;2.20;;
10586;SDS011;5341;47.606;7.576;2023-07-31T08:13:29;4.05;;;2.00;;
10586;SDS011;5341;47.606;7.576;2023-07-31T08:15:57;4.22;;;2.10;;
10586;SDS011;5341;47.606;7.576;2023-07-31T08:18:26;4.57;;;2.13;;
10586;SDS011;5341;47.606;7.576;2023-07-31T08:20:53;8.90;;;2.17;;
10586;SDS011;5341;47.606;7.576;2023-07-31T08:23:21;6.05;;;2.40;;
10586;SDS011;5341;47.606;7.576;2023-07-31T08:25:48;4.88;;;2.28;;
10586;SDS011;5341;47.606;7.576;2023-07-31T08:28:16;4.57;;;2.30;;
10586;SDS011;5341;47.606;7.576;2023-07-31T08:30:43;4.82;;;2.25;;
10586;SDS011;5341;47.606;7.576;2023-07-31T08:33:11;6.30;;;2.10;;
10586;SDS011;5341;47.606;7.576;2023-07-31T08:35:46;8.10;;;2.55;;
10586;SDS011;5341;47.606;7.576;2023-07-31T08:38:14;3.55;;;2.22;;
10586;SDS011;5341;47.606;7.576;2023-07-31T08:40:41;2.35;;;1.88;;
10586;SDS011;5341;47.606;7.576;2023-07-31T08:43:09;3.15;;;2.10;;
10586;SDS011;5341;47.606;7.576;2023-07-31T08:45:36;4.15;;;1.85;;
10586;SDS011;5341;47.606;7.576;2023-07-31T08:48:06;5.55;;;2.20;;
10586;SDS011;5341;47.606;7.576;2023-07-31T08:50:34;5.43;;;1.98;;
10586;SDS011;5341;47.606;7.576;2023-07-31T08:53:03;5.13;;;2.22;;
10586;SDS011;5341;47.606;7.576;2023-07-31T08:55:31;3.47;;;2.17;;
10586;SDS011;5341;47.606;7.576;2023-07-31T08:57:59;4.10;;;2.30;;
10586;SDS011;5341;47.606;7.576;2023-07-31T09:00:30;4.30;;;2.20;;
10586;SDS011;5341;47.606;7.576;2023-07-31T09:02:59;4.50;;;2.08;;
10586;SDS011;5341;47.606;7.576;2023-07-31T09:05:30;5.00;;;2.13;;
10586;SDS011;5341;47.606;7.576;2023-07-31T09:07:58;3.50;;;2.20;;
10586;SDS011;5341;47.606;7.576;2023-07-31T09:10:30;3.10;;;1.88;;
10586;SDS011;5341;47.606;7.576;2023-07-31T09:12:57;3.50;;;1.98;;
10586;SDS011;5341;47.606;7.576;2023-07-31T09:15:26;3.38;;;2.03;;
10586;SDS011;5341;47.606;7.576;2023-07-31T09:17:58;5.43;;;2.10;;
10586;SDS011;5341;47.606;7.576;2023-07-31T09:20:26;3.90;;;2.10;;
10586;SDS011;5341;47.606;7.576;2023-07-31T09:22:54;3.38;;;2.05;;
10586;SDS011;5341;47.606;7.576;2023-07-31T09:25:22;5.65;;;2.45;;
10586;SDS011;5341;47.606;7.576;2023-07-31T09:27:52;2.97;;;2.08;;
10586;SDS011;5341;47.606;7.576;2023-07-31T09:30:21;3.67;;;2.10;;
10586;SDS011;5341;47.606;7.576;2023-07-31T09:32:49;4.10;;;2.10;;
10586;SDS011;5341;47.606;7.576;2023-07-31T09:35:18;5.53;;;2.33;;
10586;SDS011;5341;47.606;7.576;2023-07-31T09:37:51;4.07;;;2.13;;
10586;SDS011;5341;47.606;7.576;2023-07-31T09:40:26;5.85;;;2.40;;
10586;SDS011;5341;47.606;7.576;2023-07-31T09:42:58;2.75;;;2.00;;
10586;SDS011;5341;47.606;7.576;2023-07-31T09:45:27;3.70;;;2.05;;
10586;SDS011;5341;47.606;7.576;2023-07-31T09:47:55;4.55;;;2.35;;
10586;SDS011;5341;47.606;7.576;2023-07-31T09:50:24;4.18;;;2.20;;
10586;SDS011;5341;47.606;7.576;2023-07-31T09:52:52;5.57;;;2.58;;
10586;SDS011;5341;47.606;7.576;2023-07-31T09:55:20;3.83;;;2.25;;
10586;SDS011;5341;47.606;7.576;2023-07-31T09:57:48;3.45;;;1.98;;
10586;SDS011;5341;47.606;7.576;2023-07-31T10:00:18;3.80;;;2.30;;
10586;SDS011;5341;47.606;7.576;2023-07-31T10:02:51;4.93;;;2.53;;
10586;SDS011;5341;47.606;7.576;2023-07-31T10:05:19;4.80;;;2.08;;
10586;SDS011;5341;47.606;7.576;2023-07-31T10:07:50;3.78;;;2.55;;
10586;SDS011;5341;47.606;7.576;2023-07-31T10:10:21;4.45;;;2.40;;
10586;SDS011;5341;47.606;7.576;2023-07-31T10:12:49;5.13;;;2.13;;
10586;SDS011;5341;47.606;7.576;2023-07-31T10:15:20;4.72;;;2.60;;
10586;SDS011;5341;47.606;7.576;2023-07-31T10:17:48;4.25;;;2.50;;
10586;SDS011;5341;47.606;7.576;2023-07-31T10:20:20;4.60;;;2.08;;
10586;SDS011;5341;47.606;7.576;2023-07-31T10:22:49;3.78;;;2.70;;
10586;SDS011;5341;47.606;7.576;2023-07-31T10:25:17;5.45;;;2.40;;
10586;SDS011;5341;47.606;7.576;2023-07-31T10:27:47;2.30;;;1.90;;
10586;SDS011;5341;47.606;7.576;2023-07-31T10:30:16;5.57;;;2.50;;
10586;SDS011;5341;47.606;7.576;2023-07-31T10:32:47;6.95;;;4.55;;
10586;SDS011;5341;47.606;7.576;2023-07-31T10:35:16;5.80;;;3.20;;
10586;SDS011;5341;47.606;7.576;2023-07-31T10:37:44;4.80;;;2.97;;
10586;SDS011;5341;47.606;7.576;2023-07-31T10:40:13;4.70;;;2.90;;
10586;SDS011;5341;47.606;7.576;2023-07-31T10:42:46;5.00;;;2.55;;
10586;SDS011;5341;47.606;7.576;2023-07-31T10:45:23;3.80;;;2.40;;
10586;SDS011;5341;47.606;7.576;2023-07-31T10:47:59;4.97;;;2.03;;
10586;SDS011;5341;47.606;7.576;2023-07-31T10:50:28;3.17;;;2.17;;
10586;SDS011;5341;47.606;7.576;2023-07-31T10:52:58;2.83;;;2.08;;
10586;SDS011;5341;47.606;7.576;2023-07-31T10:55:27;4.93;;;2.33;;
10586;SDS011;5341;47.606;7.576;2023-07-31T10:57:57;5.28;;;2.38;;
10586;SDS011;5341;47.606;7.576;2023-07-31T11:00:32;5.35;;;2.63;;
10586;SDS011;5341;47.606;7.576;2023-07-31T11:03:02;4.97;;;2.25;;
10586;SDS011;5341;47.606;7.576;2023-07-31T11:05:41;3.05;;;2.05;;
10586;SDS011;5341;47.606;7.576;2023-07-31T11:08:14;6.32;;;2.47;;
10586;SDS011;5341;47.606;7.576;2023-07-31T11:10:45;5.60;;;2.40;;
10586;SDS011;5341;47.606;7.576;2023-07-31T11:13:17;4.00;;;2.22;;
10586;SDS011;5341;47.606;7.576;2023-07-31T11:15:45;4.47;;;2.33;;
10586;SDS011;5341;47.606;7.576;2023-07-31T11:18:16;4.65;;;2.60;;
10586;SDS011;5341;47.606;7.576;2023-07-31T11:20:45;3.20;;;2.10;;
10586;SDS011;5341;47.606;7.576;2023-07-31T11:23:17;2.63;;;2.20;;
10586;SDS011;5341;47.606;7.576;2023-07-31T11:25:47;3.42;;;2.42;;
10586;SDS011;5341;47.606;7.576;2023-07-31T11:28:19;3.80;;;2.08;;
10586;SDS011;5341;47.606;7.576;2023-07-31T11:30:48;4.95;;;2.60;;
10586;SDS011;5341;47.606;7.576;2023-07-31T11:33:18;3.72;;;2.22;;
10586;SDS011;5341;47.606;7.576;2023-07-31T11:35:47;4.88;;;2.45;;
10586;SDS011;5341;47.606;7.576;2023-07-31T11:38:21;4.18;;;2.60;;
10586;SDS011;5341;47.606;7.576;2023-07-31T11:40:51;4.65;;;2.65;;
10586;SDS011;5341;47.606;7.576;2023-07-31T11:43:20;3.45;;;2.22;;
10586;SDS011;5341;47.606;7.576;2023-07-31T11:45:49;5.15;;;2.55;;
10586;SDS011;5341;47.606;7.576;2023-07-31T11:48:27;3.60;;;2.25;;
10586;SDS011;5341;47.606;7.576;2023-07-31T11:51:03;4.68;;;2.40;;
10586;SDS011;5341;47.606;7.576;2023-07-31T11:53:36;3.67;;;2.30;;
10586;SDS011;5341;47.606;7.576;2023-07-31T11:56:12;4.35;;;2.42;;
10586;SDS011;5341;47.606;7.576;2023-07-31T11:58:51;5.88;;;2.40;;
10586;SDS011;5341;47.606;7.576;2023-07-31T12:01:38;4.32;;;2.10;;
10586;SDS011;5341;47.606;7.576;2023-07-31T12:04:14;3.17;;;2.10;;
10586;SDS011;5341;47.606;7.576;2023-07-31T12:06:42;4.35;;;2.17;;
10586;SDS011;5341;47.606;7.576;2023-07-31T12:09:20;4.15;;;2.50;;
10586;SDS011;5341;47.606;7.576;2023-07-31T12:11:53;5.07;;;2.45;;
10586;SDS011;5341;47.606;7.576;2023-07-31T12:14:31;5.05;;;2.20;;
10586;SDS011;5341;47.606;7.576;2023-07-31T12:17:05;5.43;;;2.47;;
10586;SDS011;5341;47.606;7.576;2023-07-31T12:19:42;4.65;;;2.58;;
10586;SDS011;5341;47.606;7.576;2023-07-31T12:24:52;3.40;;;2.30;;
10586;SDS011;5341;47.606;7.576;2023-07-31T12:27:32;3.90;;;2.30;;
10586;SDS011;5341;47.606;7.576;2023-07-31T12:32:55;3.83;;;2.30;;
10586;SDS011;5341;47.606;7.576;2023-07-31T12:35:24;2.78;;;2.38;;
10586;SDS011;5341;47.606;7.576;2023-07-31T12:37:51;4.93;;;2.45;;
10586;SDS011;5341;47.606;7.576;2023-07-31T12:40:19;3.40;;;2.45;;
10586;SDS011;5341;47.606;7.576;2023-07-31T12:42:46;4.85;;;2.75;;
10586;SDS011;5341;47.606;7.576;2023-07-31T12:45:14;3.90;;;2.67;;
10586;SDS011;5341;47.606;7.576;2023-07-31T12:47:41;3.95;;;2.60;;
10586;SDS011;5341;47.606;7.576;2023-07-31T12:50:09;3.20;;;2.08;;
10586;SDS011;5341;47.606;7.576;2023-07-31T12:52:38;4.00;;;2.45;;
10586;SDS011;5341;47.606;7.576;2023-07-31T12:55:05;4.72;;;2.60;;
10586;SDS011;5341;47.606;7.576;2023-07-31T12:57:34;4.05;;;2.28;;
10586;SDS011;5341;47.606;7.576;2023-07-31T13:00:01;4.93;;;2.92;;
10586;SDS011;5341;47.606;7.576;2023-07-31T13:02:29;4.72;;;2.75;;
10586;SDS011;5341;47.606;7.576;2023-07-31T13:04:56;4.43;;;2.67;;
10586;SDS011;5341;47.606;7.576;2023-07-31T13:07:24;4.10;;;2.67;;
10586;SDS011;5341;47.606;7.576;2023-07-31T13:09:53;5.03;;;2.80;;
10586;SDS011;5341;47.606;7.576;2023-07-31T13:12:20;4.03;;;2.88;;
10586;SDS011;5341;47.606;7.576;2023-07-31T13:14:48;4.32;;;2.22;;
10586;SDS011;5341;47.606;7.576;2023-07-31T13:17:15;6.28;;;2.72;;
10586;SDS011;5341;47.606;7.576;2023-07-31T13:19:43;3.80;;;2.78;;
10586;SDS011;5341;47.606;7.576;2023-07-31T13:22:10;4.10;;;2.78;;
10586;SDS011;5341;47.606;7.576;2023-07-31T13:24:37;4.10;;;2.47;;
10586;SDS011;5341;47.606;7.576;2023-07-31T13:27:06;4.18;;;2.72;;
10586;SDS011;5341;47.606;7.576;2023-07-31T13:29:34;6.35;;;2.80;;
10586;SDS011;5341;47.606;7.576;2023-07-31T13:32:01;4.38;;;2.25;;
10586;SDS011;5341;47.606;7.576;2023-07-31T13:34:29;3.85;;;2.90;;
10586;SDS011;5341;47.606;7.576;2023-07-31T13:36:56;4.30;;;2.80;;
10586;SDS011;5341;47.606;7.576;2023-07-31T13:39:24;4.82;;;2.80;;
10586;SDS011;5341;47.606;7.576;2023-07-31T13:41:51;3.53;;;2.85;;
10586;SDS011;5341;47.606;7.576;2023-07-31T13:44:20;4.40;;;3.10;;
10586;SDS011;5341;47.606;7.576;2023-07-31T13:46:47;4.43;;;2.63;;
10586;SDS011;5341;47.606;7.576;2023-07-31T13:49:15;4.57;;;2.38;;
10586;SDS011;5341;47.606;7.576;2023-07-31T13:51:42;5.80;;;2.90;;
10586;SDS011;5341;47.606;7.576;2023-07-31T13:54:10;4.32;;;2.78;;
10586;SDS011;5341;47.606;7.576;2023-07-31T13:56:39;4.15;;;2.70;;
10586;SDS011;5341;47.606;7.576;2023-07-31T13:59:06;5.28;;;2.80;;
10586;SDS011;5341;47.606;7.576;2023-07-31T14:01:35;6.47;;;2.78;;
10586;SDS011;5341;47.606;7.576;2023-07-31T14:04:02;5.35;;;2.83;;
10586;SDS011;5341;47.606;7.576;2023-07-31T14:06:30;3.90;;;2.78;;
10586;SDS011;5341;47.606;7.576;2023-07-31T14:08:58;4.78;;;2.53;;
10586;SDS011;5341;47.606;7.576;2023-07-31T14:11:25;5.18;;;2.80;;
10586;SDS011;5341;47.606;7.576;2023-07-31T14:13:53;3.50;;;2.90;;
10586;SDS011;5341;47.606;7.576;2023-07-31T14:16:21;4.68;;;2.60;;
10586;SDS011;5341;47.606;7.576;2023-07-31T14:18:50;3.83;;;2.75;;
10586;SDS011;5341;47.606;7.576;2023-07-31T14:21:19;7.35;;;2.88;;
10586;SDS011;5341;47.606;7.576;2023-07-31T14:23:46;3.97;;;2.83;;
10586;SDS011;5341;47.606;7.576;2023-07-31T14:26:14;3.83;;;2.60;;
10586;SDS011;5341;47.606;7.576;2023-07-31T14:28:42;4.28;;;2.67;;
10586;SDS011;5341;47.606;7.576;2023-07-31T14:31:09;6.75;;;3.10;;
10586;SDS011;5341;47.606;7.576;2023-07-31T14:33:37;3.88;;;2.63;;
10586;SDS011;5341;47.606;7.576;2023-07-31T14:36:06;3.80;;;2.58;;
10586;SDS011;5341;47.606;7.576;2023-07-31T14:38:34;4.18;;;2.65;;
10586;SDS011;5341;47.606;7.576;2023-07-31T14:41:01;4.70;;;2.95;;
10586;SDS011;5341;47.606;7.576;2023-07-31T14:43:28;4.55;;;2.88;;
10586;SDS011;5341;47.606;7.576;2023-07-31T14:45:57;4.25;;;2.75;;
10586;SDS011;5341;47.606;7.576;2023-07-31T14:48:25;5.40;;;2.80;;
10586;SDS011;5341;47.606;7.576;2023-07-31T14:50:54;10.40;;;3.47;;
10586;SDS011;5341;47.606;7.576;2023-07-31T14:53:23;6.85;;;3.10;;
10586;SDS011;5341;47.606;7.576;2023-07-31T14:55:51;4.47;;;2.88;;
10586;SDS011;5341;47.606;7.576;2023-07-31T14:58:18;5.18;;;2.92;;
10586;SDS011;5341;47.606;7.576;2023-07-31T15:00:45;4.15;;;3.00;;
10586;SDS011;5341;47.606;7.576;2023-07-31T15:03:13;4.55;;;3.10;;
10586;SDS011;5341;47.606;7.576;2023-07-31T15:05:40;4.88;;;2.72;;
10586;SDS011;5341;47.606;7.576;2023-07-31T15:08:09;4.85;;;2.95;;
10586;SDS011;5341;47.606;7.576;2023-07-31T15:10:38;5.35;;;2.80;;
10586;SDS011;5341;47.606;7.576;2023-07-31T15:13:05;4.68;;;2.80;;
10586;SDS011;5341;47.606;7.576;2023-07-31T15:15:33;5.70;;;2.95;;